Time;durP1;ratioP1;P1;durP2;ratioP2;P2;SDS_P1;SDS_P2;PMS_P1;PMS_P2;Temp;Humidity;BMP_temperature;BMP_pressure;BME280_temperature;BME280_humidity;BME280_pressure;Samples;Min_cycle;Max_cycle;Signal;HPM_P1;HPM_P2
2023/06/23 00:00:11;;;;;;;10.50;5.78;;;19.30;73.70;;;;;;4948431;28;20056;-81
2023/06/23 00:02:41;;;;;;;9.90;5.77;;;19.30;73.70;;;;;;4948338;28;20054;-81
2023/06/23 00:05:09;;;;;;;9.68;5.65;;;19.30;73.80;;;;;;4948206;28;20276;-81
2023/06/23 00:07:36;;;;;;;9.60;6.00;;;19.20;73.90;;;;;;4941756;28;20062;-81
2023/06/23 00:10:05;;;;;;;10.38;5.60;;;19.20;73.80;;;;;;4943921;28;20119;-81
2023/06/23 00:12:33;;;;;;;9.27;5.60;;;19.20;74.10;;;;;;4948864;28;20059;-81
2023/06/23 00:15:03;;;;;;;11.13;6.10;;;19.20;74.20;;;;;;4962853;28;20059;-81
2023/06/23 00:17:30;;;;;;;9.80;6.07;;;19.20;74.50;;;;;;4947533;28;20260;-81
2023/06/23 00:19:57;;;;;;;9.70;5.45;;;19.20;74.00;;;;;;4947995;28;20048;-81
2023/06/23 00:22:25;;;;;;;9.07;5.45;;;19.20;73.90;;;;;;4949409;28;20067;-81
2023/06/23 00:24:52;;;;;;;8.93;6.10;;;19.10;73.80;;;;;;4947129;28;20056;-81
2023/06/23 00:27:19;;;;;;;10.07;6.17;;;19.10;73.60;;;;;;4947934;28;20055;-81
2023/06/23 00:29:46;;;;;;;10.23;6.28;;;19.10;73.70;;;;;;4947817;28;20264;-81
2023/06/23 00:32:14;;;;;;;10.27;6.30;;;19.10;73.70;;;;;;4948016;28;20051;-81
2023/06/23 00:34:41;;;;;;;9.80;6.28;;;19.10;73.80;;;;;;4948048;28;20055;-81
2023/06/23 00:37:08;;;;;;;9.82;6.00;;;19.10;73.90;;;;;;4932093;28;20127;-81
2023/06/23 00:39:35;;;;;;;11.93;6.30;;;19.10;74.00;;;;;;4947414;28;20134;-81
2023/06/23 00:42:04;;;;;;;10.35;6.75;;;19.10;74.10;;;;;;4944967;28;20430;-81
2023/06/23 00:44:33;;;;;;;9.35;5.82;;;19.10;74.40;;;;;;4930353;28;20048;-81
2023/06/23 00:47:00;;;;;;;12.10;7.43;;;19.10;74.30;;;;;;4946429;28;20119;-81
2023/06/23 00:49:31;;;;;;;12.10;7.18;;;19.10;74.50;;;;;;4946324;28;20064;-81
2023/06/23 00:52:02;;;;;;;11.50;7.07;;;19.10;74.40;;;;;;4945935;28;20044;-81
2023/06/23 00:54:29;;;;;;;10.20;7.00;;;19.10;74.60;;;;;;4947698;28;20280;-81
2023/06/23 00:56:58;;;;;;;10.60;6.90;;;19.10;74.40;;;;;;4931899;28;20052;-81
2023/06/23 00:59:28;;;;;;;12.68;6.65;;;19.00;74.80;;;;;;4946631;28;20103;-81
2023/06/23 01:01:58;;;;;;;11.98;7.10;;;19.00;74.70;;;;;;4931436;28;20561;-81
2023/06/23 01:04:26;;;;;;;12.17;7.10;;;19.00;74.80;;;;;;4949882;28;20111;-81
2023/06/23 01:07:04;;;;;;;12.35;7.20;;;19.00;74.60;;;;;;4951048;28;20278;-81
2023/06/23 01:09:39;;;;;;;11.65;7.70;;;19.00;74.60;;;;;;4951878;28;20676;-81
2023/06/23 01:12:12;;;;;;;11.60;7.47;;;19.00;74.80;;;;;;4934809;28;20636;-81
2023/06/23 01:14:49;;;;;;;13.93;8.32;;;19.00;74.80;;;;;;4934904;28;20362;-81
2023/06/23 01:17:24;;;;;;;13.80;8.03;;;19.00;74.60;;;;;;4934554;28;20056;-81
2023/06/23 01:19:56;;;;;;;14.38;8.40;;;19.00;75.00;;;;;;4934627;28;20268;-81
2023/06/23 01:22:34;;;;;;;13.75;8.32;;;19.00;75.00;;;;;;4950511;28;20048;-81
2023/06/23 01:25:12;;;;;;;13.00;7.93;;;18.90;74.90;;;;;;4950545;28;20052;-81
2023/06/23 01:28:08;;;;;;;13.15;8.15;;;18.90;74.90;;;;;;4934553;28;20489;-81
2023/06/23 01:30:39;;;;;;;11.37;7.90;;;18.90;74.90;;;;;;4931023;29;20049;-81
2023/06/23 01:33:12;;;;;;;14.07;7.93;;;18.90;75.10;;;;;;4946213;28;20279;-81
2023/06/23 01:35:42;;;;;;;11.63;7.65;;;18.90;75.20;;;;;;4947473;28;20056;-81
2023/06/23 01:38:16;;;;;;;13.15;8.02;;;18.90;75.10;;;;;;4942140;28;20119;-81
2023/06/23 01:40:43;;;;;;;12.23;7.65;;;18.90;75.00;;;;;;4934069;28;20044;-81
2023/06/23 01:43:14;;;;;;;12.50;7.73;;;18.90;75.00;;;;;;4950035;28;20048;-81
2023/06/23 01:45:43;;;;;;;13.63;6.88;;;18.90;75.00;;;;;;4934352;28;20260;-81
2023/06/23 01:48:13;;;;;;;13.57;7.97;;;18.90;74.80;;;;;;4950119;28;20127;-81
2023/06/23 01:50:42;;;;;;;14.90;8.07;;;18.80;74.90;;;;;;4948866;28;20040;-81
2023/06/23 01:53:11;;;;;;;13.25;8.43;;;18.80;74.80;;;;;;4949697;28;20107;-81
2023/06/23 01:55:40;;;;;;;12.80;8.30;;;18.80;75.10;;;;;;4934270;28;20044;-81
2023/06/23 01:58:08;;;;;;;13.07;8.50;;;18.80;75.10;;;;;;4950043;28;20343;-81
2023/06/23 02:00:36;;;;;;;11.60;7.40;;;18.80;74.80;;;;;;4949831;28;20882;-81
2023/06/23 02:03:06;;;;;;;13.68;8.38;;;18.80;74.80;;;;;;4949864;28;20103;-81
2023/06/23 02:05:34;;;;;;;12.30;8.52;;;18.80;74.70;;;;;;4931395;28;20104;-81
2023/06/23 02:08:03;;;;;;;12.80;8.60;;;18.80;75.00;;;;;;4960478;28;20511;-82
2023/06/23 02:10:30;;;;;;;12.05;7.95;;;18.80;75.30;;;;;;4933691;28;20261;-81
2023/06/23 02:12:58;;;;;;;13.65;8.45;;;18.80;75.10;;;;;;4949378;28;20533;-81
2023/06/23 02:15:27;;;;;;;13.70;8.60;;;18.70;75.30;;;;;;4948731;28;20047;-81
2023/06/23 02:17:59;;;;;;;14.23;9.02;;;18.70;75.10;;;;;;4933694;28;20051;-81
2023/06/23 02:20:29;;;;;;;14.03;9.30;;;18.70;75.20;;;;;;4933465;28;20048;-82
2023/06/23 02:22:57;;;;;;;13.00;8.52;;;18.70;75.10;;;;;;4933531;28;20359;-81
2023/06/23 02:25:26;;;;;;;15.00;8.82;;;18.70;75.10;;;;;;4932475;28;20052;-81
2023/06/23 02:27:53;;;;;;;15.07;9.27;;;18.70;75.20;;;;;;4949816;28;20526;-81
2023/06/23 02:30:20;;;;;;;14.20;9.15;;;18.70;75.20;;;;;;4949352;28;20425;-81
2023/06/23 02:32:47;;;;;;;15.23;9.53;;;18.60;75.20;;;;;;4949341;28;20143;-81
2023/06/23 02:35:15;;;;;;;12.80;8.48;;;18.60;75.20;;;;;;4930538;29;20340;-81
2023/06/23 02:37:49;;;;;;;14.45;9.52;;;18.60;75.20;;;;;;4930302;29;20052;-81
2023/06/23 02:40:19;;;;;;;16.02;9.93;;;18.60;75.40;;;;;;4943558;28;20561;-81
2023/06/23 02:43:06;;;;;;;14.25;10.20;;;18.60;74.90;;;;;;4931890;28;20142;-81
2023/06/23 02:45:39;;;;;;;14.53;9.60;;;18.60;75.40;;;;;;4933359;28;20050;-81
2023/06/23 02:48:13;;;;;;;14.18;10.02;;;18.60;75.30;;;;;;4949191;28;20260;-81
2023/06/23 02:50:42;;;;;;;15.10;10.07;;;18.60;75.60;;;;;;4932645;28;20522;-81
2023/06/23 02:53:16;;;;;;;16.02;10.10;;;18.60;75.80;;;;;;4949137;28;20151;-81
2023/06/23 02:55:45;;;;;;;15.95;9.52;;;18.50;75.90;;;;;;4948589;28;20146;-81
2023/06/23 02:58:15;;;;;;;17.03;10.50;;;18.50;75.30;;;;;;4949391;28;20064;-81
2023/06/23 03:00:43;;;;;;;14.73;10.02;;;18.50;75.80;;;;;;4949162;28;20359;-81
2023/06/23 03:03:14;;;;;;;15.10;9.95;;;18.50;75.70;;;;;;4948979;28;20056;-81
2023/06/23 03:05:42;;;;;;;15.13;10.13;;;18.50;75.90;;;;;;4950293;28;20538;-81
2023/06/23 03:08:10;;;;;;;15.60;10.10;;;18.50;76.00;;;;;;4932406;28;20052;-81
2023/06/23 03:10:37;;;;;;;16.27;10.60;;;18.40;75.90;;;;;;4948682;28;20143;-81
2023/06/23 03:13:04;;;;;;;17.10;9.63;;;18.40;76.40;;;;;;4932412;28;20703;-81
2023/06/23 03:15:31;;;;;;;14.73;9.60;;;18.40;76.30;;;;;;4947692;28;20128;-82
2023/06/23 03:18:07;;;;;;;16.15;9.35;;;18.40;76.00;;;;;;4948509;28;20085;-82
2023/06/23 03:20:38;;;;;;;14.77;9.68;;;18.40;76.40;;;;;;4948533;28;20051;-82
2023/06/23 03:23:09;;;;;;;15.87;9.90;;;18.40;76.50;;;;;;4948612;28;20063;-81
2023/06/23 03:25:40;;;;;;;14.57;9.93;;;18.30;76.60;;;;;;4932657;28;20272;-81
2023/06/23 03:28:10;;;;;;;17.95;10.40;;;18.30;76.70;;;;;;4948608;28;20713;-82
2023/06/23 03:30:41;;;;;;;15.77;9.35;;;18.30;76.80;;;;;;4948298;28;20135;-82
2023/06/23 03:33:13;;;;;;;15.70;9.60;;;18.30;76.70;;;;;;4947420;28;20162;-82
2023/06/23 03:35:43;;;;;;;16.10;9.47;;;18.30;76.80;;;;;;4932425;28;20670;-81
2023/06/23 03:38:15;;;;;;;14.75;9.60;;;18.30;76.90;;;;;;4948471;28;20306;-82
2023/06/23 03:40:47;;;;;;;16.92;10.10;;;18.20;77.00;;;;;;4950110;28;20082;-82
2023/06/23 03:43:20;;;;;;;13.98;9.75;;;18.20;77.10;;;;;;4948188;28;20048;-81
2023/06/23 03:45:51;;;;;;;15.68;9.88;;;18.20;77.00;;;;;;4948632;28;20186;-81
2023/06/23 03:48:20;;;;;;;15.93;9.60;;;18.20;77.00;;;;;;4950536;28;20067;-82
2023/06/23 03:50:53;;;;;;;17.77;9.80;;;18.20;77.00;;;;;;4947295;28;20290;-82
2023/06/23 03:53:22;;;;;;;15.52;10.35;;;18.20;77.00;;;;;;4943638;28;20468;-82
2023/06/23 03:55:52;;;;;;;15.27;9.75;;;18.10;76.80;;;;;;4947267;28;20111;-81
2023/06/23 03:58:21;;;;;;;15.07;9.50;;;18.10;76.70;;;;;;4949683;28;20062;-82
2023/06/23 04:00:50;;;;;;;14.43;9.17;;;18.10;76.80;;;;;;4940170;28;20086;-81
2023/06/23 04:03:19;;;;;;;14.10;9.07;;;18.10;76.70;;;;;;4931524;28;20288;-82
2023/06/23 04:05:49;;;;;;;15.60;9.57;;;18.10;76.80;;;;;;4944419;28;20064;-81
2023/06/23 04:08:19;;;;;;;16.15;9.93;;;18.10;76.60;;;;;;4944338;28;20087;-81
2023/06/23 04:10:47;;;;;;;15.70;9.15;;;18.10;76.50;;;;;;4958378;28;20056;-81
2023/06/23 04:13:17;;;;;;;13.43;9.53;;;18.10;76.60;;;;;;4948411;28;20044;-82
2023/06/23 04:15:46;;;;;;;13.95;9.30;;;18.10;76.70;;;;;;4946679;28;20303;-81
2023/06/23 04:18:14;;;;;;;14.02;9.13;;;18.10;76.90;;;;;;4944083;28;20067;-81
2023/06/23 04:20:45;;;;;;;13.18;8.65;;;18.10;76.60;;;;;;4929041;29;20052;-81
2023/06/23 04:23:13;;;;;;;16.00;9.40;;;18.00;76.70;;;;;;4925262;28;20169;-81
2023/06/23 04:25:41;;;;;;;13.80;8.53;;;18.00;76.70;;;;;;4944479;28;20063;-81
2023/06/23 04:28:12;;;;;;;14.55;8.60;;;18.00;76.60;;;;;;4948273;28;20274;-82
2023/06/23 04:30:42;;;;;;;12.68;8.38;;;18.00;76.60;;;;;;4940608;28;20056;-81
2023/06/23 04:33:08;;;;;;;13.00;8.73;;;18.00;76.40;;;;;;4942305;28;20556;-82
2023/06/23 04:35:36;;;;;;;13.27;8.20;;;18.00;76.30;;;;;;4947661;28;20056;-82
2023/06/23 04:38:07;;;;;;;13.13;8.07;;;18.00;76.20;;;;;;4948101;28;20089;-82
2023/06/23 04:40:40;;;;;;;13.88;8.18;;;18.00;76.40;;;;;;4936984;28;20884;-81
2023/06/23 04:43:12;;;;;;;12.35;8.15;;;18.00;76.50;;;;;;4970774;28;20146;-82
2023/06/23 04:45:45;;;;;;;13.75;7.65;;;18.00;76.20;;;;;;4957594;28;20138;-82
2023/06/23 04:48:13;;;;;;;12.65;8.05;;;18.00;76.20;;;;;;4976362;28;20526;-82
2023/06/23 04:50:42;;;;;;;12.77;8.07;;;18.00;76.30;;;;;;4955929;28;20047;-81
2023/06/23 04:53:16;;;;;;;13.45;8.00;;;18.00;76.40;;;;;;4945853;28;20371;-82
2023/06/23 04:55:48;;;;;;;13.02;7.95;;;18.00;76.40;;;;;;4942466;28;20052;-82
2023/06/23 04:58:17;;;;;;;13.48;7.72;;;18.00;76.40;;;;;;4948140;28;20055;-82
2023/06/23 05:00:48;;;;;;;11.27;7.55;;;18.00;76.10;;;;;;4947896;28;20051;-82
2023/06/23 05:03:17;;;;;;;13.13;8.60;;;18.00;76.50;;;;;;4950482;28;20048;-82
2023/06/23 05:05:46;;;;;;;14.05;8.32;;;18.00;76.60;;;;;;4949455;28;20967;-82
2023/06/23 05:08:14;;;;;;;14.52;8.23;;;18.00;76.70;;;;;;4953490;28;20053;-81
2023/06/23 05:10:46;;;;;;;13.13;8.20;;;18.00;76.80;;;;;;4950212;28;20052;-81
2023/06/23 05:13:17;;;;;;;12.15;7.78;;;17.90;76.80;;;;;;4982592;28;20056;-82
2023/06/23 05:15:47;;;;;;;13.73;8.10;;;18.00;76.70;;;;;;4935491;28;20050;-82
2023/06/23 05:18:17;;;;;;;16.20;8.35;;;18.00;76.90;;;;;;4950580;28;20272;-81
2023/06/23 05:20:45;;;;;;;12.05;7.80;;;17.90;76.60;;;;;;4966564;28;20052;-81
2023/06/23 05:23:14;;;;;;;14.10;7.95;;;18.00;76.60;;;;;;4950785;28;20064;-81
2023/06/23 05:25:43;;;;;;;11.90;8.10;;;18.00;76.70;;;;;;4951470;28;20183;-81
2023/06/23 05:28:11;;;;;;;13.40;7.80;;;18.00;76.50;;;;;;4950913;28;20062;-82
2023/06/23 05:30:41;;;;;;;11.02;6.72;;;18.00;76.50;;;;;;4951745;28;20268;-82
2023/06/23 05:33:11;;;;;;;13.60;7.97;;;18.00;76.60;;;;;;4950214;28;20171;-82
2023/06/23 05:35:42;;;;;;;13.77;8.02;;;18.00;76.60;;;;;;4948439;28;20052;-82
2023/06/23 05:38:10;;;;;;;13.15;8.10;;;18.00;76.60;;;;;;4950587;28;20138;-81
2023/06/23 05:40:37;;;;;;;13.27;8.20;;;18.00;76.70;;;;;;4965878;28;20055;-81
2023/06/23 05:43:05;;;;;;;14.30;8.00;;;18.00;76.90;;;;;;4950616;28;20287;-81
2023/06/23 05:45:32;;;;;;;11.80;7.97;;;17.90;76.80;;;;;;4948550;28;20056;-82
2023/06/23 05:48:05;;;;;;;14.73;8.57;;;17.90;76.80;;;;;;4934687;28;20081;-82
2023/06/23 05:50:36;;;;;;;13.75;8.50;;;17.90;76.90;;;;;;4947953;28;20051;-81
2023/06/23 05:53:07;;;;;;;13.87;8.50;;;17.90;76.90;;;;;;4982771;28;20058;-82
2023/06/23 05:55:38;;;;;;;14.43;7.97;;;17.90;77.00;;;;;;4949734;28;20260;-81
2023/06/23 05:58:10;;;;;;;13.82;9.15;;;17.90;76.90;;;;;;4952056;28;20056;-82
2023/06/23 06:00:41;;;;;;;14.02;8.98;;;17.90;77.10;;;;;;4949382;28;20052;-82
2023/06/23 06:03:14;;;;;;;17.23;9.88;;;17.90;77.20;;;;;;4939047;28;20151;-82
2023/06/23 06:05:48;;;;;;;14.07;9.67;;;17.90;77.50;;;;;;4965245;28;20074;-82
2023/06/23 06:08:16;;;;;;;14.70;7.95;;;17.90;77.70;;;;;;4949167;28;20842;-81
2023/06/23 06:10:44;;;;;;;10.55;6.13;;;17.90;77.90;;;;;;4950169;28;20140;-80
2023/06/23 06:13:13;;;;;;;15.07;8.93;;;17.90;77.90;;;;;;4950140;28;20107;-81
2023/06/23 06:15:40;;;;;;;11.68;6.75;;;17.90;78.40;;;;;;4982689;28;20060;-79
2023/06/23 06:18:11;;;;;;;10.00;6.57;;;18.00;78.10;;;;;;4982559;28;20426;-81
2023/06/23 06:20:41;;;;;;;13.60;7.85;;;18.00;78.40;;;;;;4948332;28;20777;-81
2023/06/23 06:23:11;;;;;;;12.07;7.00;;;18.00;78.10;;;;;;4948962;28;20143;-80
2023/06/23 06:25:39;;;;;;;8.88;5.43;;;18.00;77.90;;;;;;4948063;28;20499;-81
2023/06/23 06:28:11;;;;;;;13.13;6.85;;;18.00;77.90;;;;;;4948684;28;20052;-81
2023/06/23 06:30:40;;;;;;;14.73;6.50;;;18.10;78.10;;;;;;4944849;28;20048;-81
2023/06/23 06:33:09;;;;;;;12.23;7.18;;;18.10;77.70;;;;;;4946133;28;21158;-81
2023/06/23 06:35:38;;;;;;;12.02;7.15;;;18.10;77.70;;;;;;4949288;28;20052;-81
2023/06/23 06:38:07;;;;;;;11.80;6.50;;;18.20;77.90;;;;;;4949888;28;20054;-79
2023/06/23 06:40:39;;;;;;;13.23;6.50;;;18.20;77.70;;;;;;4937806;28;20078;-79
2023/06/23 06:43:06;;;;;;;9.90;6.03;;;18.30;77.60;;;;;;4935487;28;20058;-79
2023/06/23 06:45:34;;;;;;;10.38;5.30;;;18.30;77.70;;;;;;4932636;28;21181;-78
2023/06/23 06:48:03;;;;;;;10.30;6.15;;;18.40;77.60;;;;;;4943104;28;20079;-79
2023/06/23 06:50:40;;;;;;;10.70;6.40;;;18.40;77.50;;;;;;4941224;28;20051;-79
2023/06/23 06:53:13;;;;;;;8.57;4.72;;;18.50;77.70;;;;;;4942470;28;20056;-79
2023/06/23 06:55:42;;;;;;;10.60;6.07;;;18.50;77.50;;;;;;4942593;28;20058;-75
2023/06/23 06:58:09;;;;;;;9.98;5.72;;;18.50;77.30;;;;;;4950597;28;20256;-77
2023/06/23 07:00:36;;;;;;;8.27;4.40;;;18.60;77.20;;;;;;4948158;28;20055;-77
2023/06/23 07:03:05;;;;;;;9.63;4.57;;;18.60;76.90;;;;;;4948519;28;20057;-73
2023/06/23 07:05:32;;;;;;;9.80;5.70;;;18.70;77.00;;;;;;4950926;28;20063;-74
2023/06/23 07:07:59;;;;;;;10.73;5.13;;;18.70;76.90;;;;;;4942429;28;20055;-77
2023/06/23 07:10:26;;;;;;;8.50;5.20;;;18.70;76.80;;;;;;4948950;28;20766;-74
2023/06/23 07:12:54;;;;;;;10.73;6.18;;;18.80;76.20;;;;;;4955005;28;20059;-75
2023/06/23 07:15:22;;;;;;;9.02;5.10;;;18.80;76.20;;;;;;4938237;28;20522;-75
2023/06/23 07:17:49;;;;;;;8.93;5.10;;;18.90;76.20;;;;;;4947703;28;20052;-75
2023/06/23 07:20:16;;;;;;;10.97;5.40;;;18.90;75.90;;;;;;4946072;28;20055;-75
2023/06/23 07:22:43;;;;;;;8.80;5.47;;;18.90;75.40;;;;;;4947456;28;21262;-75
2023/06/23 07:25:10;;;;;;;10.70;5.20;;;19.00;75.30;;;;;;4947795;28;20052;-75
2023/06/23 07:27:37;;;;;;;8.65;5.10;;;19.00;75.20;;;;;;4947918;28;20135;-75
2023/06/23 07:30:07;;;;;;;9.45;5.85;;;19.00;75.40;;;;;;4948647;28;20983;-75
2023/06/23 07:32:34;;;;;;;8.43;4.93;;;19.10;75.70;;;;;;4948405;28;20059;-75
2023/06/23 07:35:01;;;;;;;8.85;5.55;;;19.10;75.70;;;;;;4948899;28;20271;-75
2023/06/23 07:37:28;;;;;;;10.45;5.97;;;19.10;75.30;;;;;;4947851;28;20138;-75
2023/06/23 07:39:56;;;;;;;8.73;5.80;;;19.20;74.90;;;;;;4949036;28;20063;-75
2023/06/23 07:42:23;;;;;;;8.52;5.10;;;19.20;75.30;;;;;;4948241;28;20055;-75
2023/06/23 07:44:50;;;;;;;8.47;4.70;;;19.30;75.10;;;;;;4949148;28;20059;-75
2023/06/23 07:47:19;;;;;;;8.73;5.00;;;19.30;74.90;;;;;;4948659;28;20252;-75
2023/06/23 07:49:46;;;;;;;9.68;5.35;;;19.30;74.80;;;;;;4950440;28;20056;-75
2023/06/23 07:52:13;;;;;;;7.65;4.55;;;19.40;74.80;;;;;;4948507;28;20052;-75
2023/06/23 07:54:40;;;;;;;8.30;4.30;;;19.40;74.50;;;;;;4948829;28;20056;-75
2023/06/23 07:57:08;;;;;;;9.40;4.27;;;19.40;74.00;;;;;;4932226;28;20047;-75
2023/06/23 07:59:35;;;;;;;8.82;4.95;;;19.50;73.90;;;;;;4945228;28;20253;-75
2023/06/23 08:02:02;;;;;;;7.85;4.65;;;19.50;73.60;;;;;;4942156;28;20044;-75
2023/06/23 08:04:31;;;;;;;8.38;4.65;;;19.50;73.40;;;;;;4946655;28;20056;-75
2023/06/23 08:06:58;;;;;;;8.00;4.07;;;19.50;73.00;;;;;;4946261;28;20062;-74
2023/06/23 08:09:29;;;;;;;9.03;4.63;;;19.60;72.90;;;;;;4935750;28;20135;-72
2023/06/23 08:11:56;;;;;;;5.97;3.75;;;19.60;72.60;;;;;;4945263;28;20275;-72
2023/06/23 08:14:23;;;;;;;6.22;3.35;;;19.70;72.20;;;;;;4947477;28;20060;-72
2023/06/23 08:16:50;;;;;;;6.53;3.50;;;19.70;71.50;;;;;;4949237;28;20051;-72
2023/06/23 08:19:21;;;;;;;6.53;3.42;;;19.70;71.10;;;;;;4949381;28;20154;-72
2023/06/23 08:21:49;;;;;;;6.40;2.87;;;19.70;70.70;;;;;;4950876;28;20059;-73
2023/06/23 08:24:16;;;;;;;6.45;3.17;;;19.80;70.40;;;;;;4954102;28;20748;-73
2023/06/23 08:26:44;;;;;;;5.32;3.15;;;19.80;69.70;;;;;;4954009;28;20055;-72
2023/06/23 08:29:11;;;;;;;7.25;3.22;;;19.90;69.60;;;;;;4935593;28;20128;-71
2023/06/23 08:31:38;;;;;;;6.32;3.28;;;19.90;69.50;;;;;;4952066;28;20653;-73
2023/06/23 08:34:05;;;;;;;5.10;2.93;;;20.00;69.40;;;;;;4955807;28;20048;-73
2023/06/23 08:36:32;;;;;;;5.72;3.17;;;20.00;69.00;;;;;;4951416;28;20280;-73
2023/06/23 08:39:01;;;;;;;6.78;3.17;;;20.00;69.00;;;;;;4950703;28;20056;-73
2023/06/23 08:41:31;;;;;;;4.97;2.90;;;20.00;68.50;;;;;;4951472;28;20198;-71
2023/06/23 08:44:02;;;;;;;5.63;3.03;;;20.00;67.50;;;;;;4949427;28;20055;-73
2023/06/23 08:46:32;;;;;;;5.30;3.00;;;20.10;67.70;;;;;;4951847;28;20202;-76
2023/06/23 08:49:06;;;;;;;6.20;3.30;;;20.10;68.20;;;;;;4948731;28;20252;-72
2023/06/23 08:51:34;;;;;;;6.57;3.72;;;20.20;68.00;;;;;;4951688;28;20050;-72
2023/06/23 08:54:03;;;;;;;5.65;3.38;;;20.20;67.40;;;;;;4951221;28;20482;-72
2023/06/23 08:56:30;;;;;;;6.47;3.25;;;20.30;66.80;;;;;;4983022;28;20098;-73
2023/06/23 08:58:58;;;;;;;5.77;3.20;;;20.30;66.20;;;;;;4953394;28;20142;-75
2023/06/23 09:01:26;;;;;;;6.45;3.40;;;20.30;66.40;;;;;;4958509;28;20773;-75
2023/06/23 09:03:54;;;;;;;5.65;3.03;;;20.50;66.30;;;;;;4947144;28;20054;-75
2023/06/23 09:06:21;;;;;;;6.50;3.65;;;20.50;66.40;;;;;;4935227;28;20059;-74
2023/06/23 09:08:49;;;;;;;7.65;3.38;;;20.50;66.30;;;;;;4945395;28;20044;-75
2023/06/23 09:11:17;;;;;;;6.03;3.60;;;20.50;65.90;;;;;;4932388;28;20139;-74
2023/06/23 09:13:46;;;;;;;5.53;3.45;;;20.60;65.30;;;;;;4951268;28;20255;-75
2023/06/23 09:16:16;;;;;;;8.35;4.00;;;20.70;65.10;;;;;;4941615;28;20134;-75
2023/06/23 09:18:47;;;;;;;6.47;3.53;;;20.70;65.50;;;;;;4949726;28;20134;-75
2023/06/23 09:21:14;;;;;;;6.00;3.08;;;20.80;65.40;;;;;;4950423;28;20055;-75
2023/06/23 09:23:57;;;;;;;5.93;3.27;;;20.80;65.50;;;;;;4952146;28;20054;-75
2023/06/23 09:26:51;;;;;;;7.30;3.10;;;20.90;64.90;;;;;;4952955;28;20263;-76
2023/06/23 09:29:20;;;;;;;5.82;3.15;;;21.00;64.00;;;;;;4949850;28;20638;-76
2023/06/23 09:31:48;;;;;;;5.18;2.95;;;21.00;64.20;;;;;;4945453;28;20491;-76
2023/06/23 09:34:24;;;;;;;6.07;3.20;;;21.00;64.60;;;;;;4948543;28;20079;-76
2023/06/23 09:36:52;;;;;;;5.63;3.70;;;21.10;64.70;;;;;;4950752;28;20064;-76
2023/06/23 09:39:19;;;;;;;7.55;3.80;;;21.10;64.80;;;;;;4950132;28;20274;-77
2023/06/23 09:41:47;;;;;;;7.63;3.78;;;21.10;64.90;;;;;;4946608;28;20103;-75
2023/06/23 09:44:15;;;;;;;5.35;3.00;;;21.30;65.40;;;;;;4950496;28;20056;-76
2023/06/23 09:46:43;;;;;;;6.40;3.70;;;21.30;65.40;;;;;;4947203;28;20051;-76
2023/06/23 09:49:10;;;;;;;5.83;3.30;;;21.40;64.40;;;;;;4950148;28;20056;-76
2023/06/23 09:51:37;;;;;;;5.60;2.72;;;21.50;63.20;;;;;;4946775;28;20288;-78
2023/06/23 09:54:05;;;;;;;6.45;3.08;;;21.50;62.60;;;;;;4956840;28;20060;-75
2023/06/23 09:56:31;;;;;;;5.53;3.10;;;21.50;62.70;;;;;;4944554;28;20567;-75
2023/06/23 09:58:58;;;;;;;5.72;2.80;;;21.50;62.50;;;;;;4944267;28;20060;-75
2023/06/23 10:01:27;;;;;;;4.97;2.83;;;21.50;62.10;;;;;;4947585;28;20054;-75
2023/06/23 10:03:55;;;;;;;5.47;3.17;;;21.60;61.40;;;;;;4950207;28;20252;-74
2023/06/23 10:06:24;;;;;;;6.15;3.35;;;21.70;61.10;;;;;;4949994;28;20134;-75
2023/06/23 10:08:56;;;;;;;5.18;2.92;;;21.70;61.20;;;;;;4948080;28;20123;-75
2023/06/23 10:11:30;;;;;;;6.55;3.05;;;21.70;61.60;;;;;;4947750;28;20052;-75
2023/06/23 10:13:58;;;;;;;5.17;2.90;;;21.80;61.80;;;;;;4948451;28;20068;-75
2023/06/23 10:16:27;;;;;;;6.47;3.10;;;21.80;60.70;;;;;;4949815;28;20272;-74
2023/06/23 10:18:55;;;;;;;5.85;3.10;;;21.90;60.20;;;;;;4948598;28;20199;-75
2023/06/23 10:21:24;;;;;;;5.82;3.00;;;21.90;60.00;;;;;;4943729;28;20048;-74
2023/06/23 10:23:54;;;;;;;5.63;3.10;;;22.00;60.20;;;;;;4944447;28;20158;-77
2023/06/23 10:26:23;;;;;;;7.03;3.27;;;22.00;59.90;;;;;;4943991;28;20139;-75
2023/06/23 10:28:54;;;;;;;4.80;2.78;;;22.00;60.50;;;;;;4943998;28;20264;-75
2023/06/23 10:31:22;;;;;;;5.88;2.63;;;22.10;60.30;;;;;;4943905;28;20055;-75
2023/06/23 10:33:53;;;;;;;6.25;3.28;;;22.20;60.00;;;;;;4948291;28;20051;-75
2023/06/23 10:36:21;;;;;;;7.35;3.47;;;22.20;60.00;;;;;;4944145;28;20059;-74
2023/06/23 10:38:53;;;;;;;5.53;3.13;;;22.30;60.00;;;;;;4945268;28;20066;-74
2023/06/23 10:41:20;;;;;;;7.10;3.75;;;22.40;60.30;;;;;;4930149;28;20303;-75
2023/06/23 10:43:52;;;;;;;7.63;3.28;;;22.50;60.90;;;;;;4947223;28;20150;-75
2023/06/23 10:46:20;;;;;;;5.72;3.30;;;22.50;61.30;;;;;;4946742;28;21081;-74
2023/06/23 10:48:48;;;;;;;8.52;4.10;;;22.50;61.00;;;;;;4978447;28;20058;-75
2023/06/23 10:51:16;;;;;;;6.57;3.10;;;22.60;61.30;;;;;;4947030;28;20120;-75
2023/06/23 10:53:56;;;;;;;5.20;2.83;;;22.60;61.00;;;;;;4959604;28;20288;-74
2023/06/23 10:56:34;;;;;;;6.35;3.08;;;22.70;60.50;;;;;;4946531;28;20066;-75
2023/06/23 10:59:18;;;;;;;6.75;3.28;;;22.70;60.00;;;;;;4945282;28;20059;-74
2023/06/23 11:02:19;;;;;;;7.00;3.03;;;22.80;60.00;;;;;;4944773;28;20069;-75
2023/06/23 11:04:54;;;;;;;6.80;3.27;;;22.90;60.30;;;;;;4906124;28;20055;-75
2023/06/23 11:07:23;;;;;;;7.93;3.30;;;22.90;59.80;;;;;;4952066;28;20293;-75
2023/06/23 11:10:03;;;;;;;5.03;2.90;;;22.90;60.00;;;;;;4947293;28;20052;-74
2023/06/23 11:12:31;;;;;;;5.03;2.78;;;23.00;59.50;;;;;;4931268;28;20468;-75
2023/06/23 11:15:12;;;;;;;7.75;3.03;;;23.00;58.80;;;;;;4948244;28;20059;-75
2023/06/23 11:17:44;;;;;;;5.03;3.03;;;23.10;58.70;;;;;;4948606;28;20056;-75
2023/06/23 11:20:13;;;;;;;4.40;2.53;;;23.10;58.40;;;;;;4931440;28;20281;-75
2023/06/23 11:22:53;;;;;;;5.55;2.70;;;23.10;58.20;;;;;;4948761;28;20091;-74
2023/06/23 11:25:26;;;;;;;5.82;2.80;;;23.20;57.80;;;;;;4945790;28;20486;-75
2023/06/23 11:28:29;;;;;;;5.03;2.30;;;23.20;57.40;;;;;;4948335;28;20083;-74
2023/06/23 11:31:11;;;;;;;4.20;2.27;;;23.30;57.20;;;;;;4948744;28;20043;-74
2023/06/23 11:33:40;;;;;;;3.97;2.35;;;23.30;57.00;;;;;;4944386;28;20853;-75
2023/06/23 11:36:09;;;;;;;5.65;2.63;;;23.40;56.40;;;;;;4946595;28;20052;-75
2023/06/23 11:38:40;;;;;;;5.57;2.83;;;23.40;55.70;;;;;;4943128;28;20043;-74
2023/06/23 11:41:07;;;;;;;5.03;2.80;;;23.50;55.60;;;;;;4948780;28;20141;-75
2023/06/23 11:43:35;;;;;;;5.47;2.60;;;23.50;54.50;;;;;;4945951;28;20407;-75
2023/06/23 11:46:09;;;;;;;5.60;2.80;;;23.50;54.30;;;;;;4950450;28;20286;-77
2023/06/23 11:48:37;;;;;;;5.25;3.13;;;23.60;54.70;;;;;;4947070;28;20055;-76
2023/06/23 11:51:07;;;;;;;4.90;2.90;;;23.60;54.70;;;;;;4960745;28;20076;-74
2023/06/23 11:53:34;;;;;;;4.53;2.67;;;23.60;54.70;;;;;;4946230;28;21061;-76
2023/06/23 11:56:03;;;;;;;4.83;2.70;;;23.60;55.30;;;;;;4940387;28;20059;-75
2023/06/23 11:58:31;;;;;;;4.40;2.50;;;23.60;55.00;;;;;;4942068;28;20288;-76
2023/06/23 12:00:58;;;;;;;5.55;2.88;;;23.70;55.00;;;;;;4941945;28;20059;-75
2023/06/23 12:03:26;;;;;;;5.25;2.90;;;23.70;55.90;;;;;;4946423;28;20134;-75
2023/06/23 12:05:53;;;;;;;7.47;3.35;;;23.80;55.50;;;;;;4942574;28;20102;-75
2023/06/23 12:08:23;;;;;;;4.43;2.30;;;23.80;54.70;;;;;;4946629;28;20051;-80
2023/06/23 12:10:52;;;;;;;4.80;2.80;;;23.90;54.40;;;;;;4974637;28;20300;-73
2023/06/23 12:13:21;;;;;;;5.10;3.30;;;23.90;53.50;;;;;;4949042;28;20051;-77
2023/06/23 12:15:48;;;;;;;5.80;3.00;;;24.00;53.70;;;;;;4948762;28;20496;-76
2023/06/23 12:18:15;;;;;;;6.63;2.90;;;24.00;53.70;;;;;;4932188;28;20054;-75
2023/06/23 12:20:44;;;;;;;4.90;2.90;;;24.00;52.80;;;;;;4951234;28;20135;-74
2023/06/23 12:23:13;;;;;;;5.25;2.63;;;24.10;50.90;;;;;;4943396;28;20402;-76
2023/06/23 12:25:43;;;;;;;6.25;2.80;;;24.10;50.40;;;;;;4945372;28;20052;-75
2023/06/23 12:28:12;;;;;;;5.40;3.13;;;24.20;50.70;;;;;;4945144;28;20075;-76
2023/06/23 12:30:43;;;;;;;5.18;2.50;;;24.20;51.00;;;;;;4952633;28;20506;-77
2023/06/23 12:33:16;;;;;;;5.87;3.07;;;24.20;50.90;;;;;;4940318;28;20100;-75
2023/06/23 12:35:56;;;;;;;6.47;2.90;;;24.20;50.40;;;;;;4940398;28;20261;-76
2023/06/23 12:38:24;;;;;;;5.53;2.97;;;24.30;51.80;;;;;;4934988;28;20086;-76
2023/06/23 12:40:51;;;;;;;6.43;2.65;;;24.40;51.70;;;;;;4947237;28;20051;-76
2023/06/23 12:43:19;;;;;;;6.05;2.65;;;24.40;51.80;;;;;;4943683;28;20052;-77
2023/06/23 12:45:50;;;;;;;5.33;2.70;;;24.40;51.30;;;;;;4940480;28;20055;-76
2023/06/23 12:48:20;;;;;;;5.60;2.50;;;24.50;49.80;;;;;;4943652;28;20268;-76
2023/06/23 12:50:54;;;;;;;4.88;2.75;;;24.50;49.40;;;;;;4943157;28;20055;-77
2023/06/23 12:53:21;;;;;;;5.43;2.90;;;24.60;50.10;;;;;;4945669;28;20060;-76